Aérodrome :
LOGIN :

S'inscrire | Disclaimer

   EN    FR    IT 

 










Légende :    VFR   VFR Marginal   IFR   IFR Intensif   IFR Très Intensif
Visi : 
Plafond : 
>= 8 km
>= 3000ft
5 à 8 km
1000 à 3000 ft
1500m à 5 km
500 à 1000 ft
800 à 1500m
200 à 500 ft
< 800m
< 200 ft
Symboles :   Orages  Brouillard  Fortes neiges  Fortes précipitations  Vent > 20 kt
SIGMETs :   Divers  Orages  Givrage  Turbulence  Onde Orograph.  Cendres Volcan.







- Altitude de l'aérodrome : 741 ft
- Code IATA : PED


LKPD - Pardubice AB

DERNIER METAR :
  • 172200Z 36003KT 7000 OVC040 M00/M01 Q1022 RMK WHT

METARs EXPIRÉS :
  • 172100Z 14005KT 6000 -SN OVC047 M01/M01 Q1022 RMK WHT
  • 172000Z 09003KT 5000 -SN OVC040 M01/M01 Q1022 NOSIG RMK WHT WHT

TAF TAF LKPD
Valide du 17 à 18h jusqu'au 18 à 18h UTC


171700Z 1718/1818 08005KT 7000 BKN015
TEMPO 1718/1807 6000 SN BKN008
PROB30
TEMPO 1718/1802 2000 SN BKN005
BECMG 1803/1805 VRB02KT 4000 BR BKN012
BECMG 1807/1810 8000 NSW BKN023
Pas de NOTAMs connus pour ce terrain.



MET'MAP, la Météo Aéronautique d'un coup d'oeil ! - Copyright ORBIFLY Décembre 2007 - Disclaimer

ORBIFLY MET'MAP TEAM :

Programmation & Développement : Alexandra Zaïnal
Conception & Développement : Baudouin d'Aumeries
Co-Programmation & Développement : Marc-Olivier Méhu
Soutien technique & logistique : Manuel Goepfert

Contact : metmap@orbifly.com




SOURCES & CREDITS :

   NOAA